North Freedom, Wisconsin
Current Conditions -  °F | °C
As of 1:35 PM on Thursday 27 Nov 2014 (Local Time) from KDLL Reporting Station
Clear Clear  
Wind Chill:   Ceiling: Unl
Heat Index: 15°   Visibility: 10mi
Dew Point:   Wind: 8mph
Humidity: 67%   Direction: 300°WNW
Pressure: 30.36"   Gusts: NA
Location:  43.46°N, 89.87°W
Report Text: KDLL 271935Z AUTO 30007KT 10SM CLR M09/M14 A3036 RMK AO2 T10931145
Loading
Personal Weather Stations






























Interactive Weather Map New forecast layout! Learn more

10-Day Weather Forecast

Advertisements
Track Severe Weather on mobile